Time;durP1;ratioP1;P1;durP2;ratioP2;P2;SDS_P1;SDS_P2;PMS_P1;PMS_P2;Temp;Humidity;BMP_temperature;BMP_pressure;BME280_temperature;BME280_humidity;BME280_pressure;Samples;Min_cycle;Max_cycle;Signal;HPM_P1;HPM_P2
2020/12/11 00:01:21;;;;;;;46.38;21.95;;;;;;;-1.06;97.98;100099.03;4795983;29;20579;-88
2020/12/11 00:03:59;;;;;;;59.15;25.27;;;;;;;-1.10;97.83;100097.47;4796904;29;20184;-87
2020/12/11 00:06:31;;;;;;;52.20;23.08;;;;;;;-1.06;98.30;100090.22;4805758;29;20038;-88
2020/12/11 00:08:57;;;;;;;53.97;23.80;;;;;;;-1.04;98.20;100085.75;4819952;29;20110;-88
2020/12/11 00:11:29;;;;;;;47.28;20.83;;;;;;;-1.08;98.22;100074.47;4811031;29;20137;-88
2020/12/11 00:13:55;;;;;;;53.42;22.10;;;;;;;-1.08;98.05;100073.63;4802535;29;20094;-88
2020/12/11 00:16:21;;;;;;;48.55;23.00;;;;;;;-1.08;97.98;100069.19;4802779;29;20054;-87
2020/12/11 00:18:51;;;;;;;53.03;22.77;;;;;;;-1.05;98.07;100065.53;4792816;29;20043;-87
2020/12/11 00:21:17;;;;;;;51.25;23.42;;;;;;;-1.01;97.89;100075.00;4794991;29;20579;-87
2020/12/11 00:23:42;;;;;;;47.35;21.50;;;;;;;-1.02;97.78;100065.38;4800069;29;20058;-87
2020/12/11 00:26:11;;;;;;;51.05;23.10;;;;;;;-1.04;97.84;100063.75;4801686;29;20557;-87
2020/12/11 00:28:36;;;;;;;47.70;22.40;;;;;;;-0.99;97.74;100067.00;4794357;29;20106;-88
2020/12/11 00:31:02;;;;;;;49.03;22.75;;;;;;;-1.00;98.13;100066.16;4815592;29;20520;-87
2020/12/11 00:33:30;;;;;;;45.33;21.38;;;;;;;-0.96;97.89;100058.91;4796477;29;20051;-87
2020/12/11 00:35:55;;;;;;;46.65;22.05;;;;;;;-1.00;97.86;100060.00;4803566;29;20526;-88
2020/12/11 00:38:21;;;;;;;44.08;20.85;;;;;;;-0.99;97.74;100056.44;4792654;29;20121;-88
2020/12/11 00:40:49;;;;;;;45.63;21.73;;;;;;;-1.00;97.83;100038.88;4799435;29;20513;-88
2020/12/11 00:43:15;;;;;;;49.77;21.53;;;;;;;-0.96;97.88;100037.78;4804937;29;20042;-88
2020/12/11 00:45:40;;;;;;;48.00;24.00;;;;;;;-0.97;97.73;100044.84;4806500;29;20038;-89
2020/12/11 00:48:09;;;;;;;48.05;23.08;;;;;;;-0.93;97.50;100037.59;4802023;29;20034;-88
2020/12/11 00:50:40;;;;;;;45.87;20.93;;;;;;;-0.95;97.46;100036.84;4788796;29;20496;-87
2020/12/11 00:53:08;;;;;;;48.70;21.58;;;;;;;-0.94;97.32;100033.28;4816564;29;20518;-88
2020/12/11 00:55:33;;;;;;;49.88;22.75;;;;;;;-0.91;97.55;100033.94;4804355;29;20077;-87
2020/12/11 00:57:59;;;;;;;44.42;21.55;;;;;;;-0.94;97.22;100034.13;4800819;29;20153;-88
2020/12/11 01:00:27;;;;;;;49.63;22.40;;;;;;;-0.97;97.51;100033.41;4803411;29;20057;-88
2020/12/11 01:02:55;;;;;;;47.08;22.27;;;;;;;-0.94;97.13;100028.00;4796681;29;20598;-88
2020/12/11 01:05:23;;;;;;;47.20;22.20;;;;;;;-0.98;97.49;100015.88;4799628;29;20046;-87
2020/12/11 01:07:49;;;;;;;41.55;20.90;;;;;;;-1.01;97.43;100021.34;4782129;29;20600;-87
2020/12/11 01:10:16;;;;;;;42.22;20.33;;;;;;;-1.03;97.05;100024.06;4816472;29;20127;-88
2020/12/11 01:12:47;;;;;;;44.33;22.70;;;;;;;-1.04;97.45;100021.50;4796209;29;20046;-87
2020/12/11 01:15:12;;;;;;;42.90;22.02;;;;;;;-1.03;97.36;100018.78;4794983;29;20070;-87
2020/12/11 01:17:38;;;;;;;42.90;21.20;;;;;;;-1.01;97.26;100005.50;4797213;29;20111;-89
2020/12/11 01:20:04;;;;;;;40.50;21.10;;;;;;;-1.02;97.27;100007.25;4806312;29;20058;-87
2020/12/11 01:22:31;;;;;;;43.97;23.00;;;;;;;-1.04;97.46;99990.66;4786541;29;20042;-87
2020/12/11 01:24:57;;;;;;;41.30;19.75;;;;;;;-1.00;97.28;99980.75;4822683;29;20039;-87
2020/12/11 01:27:25;;;;;;;47.65;22.85;;;;;;;-1.02;97.03;99980.84;4813821;29;20050;-88
2020/12/11 01:29:50;;;;;;;41.30;19.77;;;;;;;-1.06;97.29;99972.25;4803490;29;20087;-87
2020/12/11 01:32:16;;;;;;;43.42;21.83;;;;;;;-1.08;96.99;99971.47;4800491;29;20117;-88
2020/12/11 01:34:42;;;;;;;42.70;21.05;;;;;;;-1.08;96.95;99968.81;4799972;29;20549;-87
2020/12/11 01:37:10;;;;;;;41.90;21.33;;;;;;;-1.10;97.02;99957.50;4803761;29;20057;-87
2020/12/11 01:39:35;;;;;;;43.80;21.67;;;;;;;-1.11;97.04;99947.88;4802175;29;20045;-87
2020/12/11 01:42:01;;;;;;;43.80;21.20;;;;;;;-1.17;96.95;99936.81;4802021;29;20046;-87
2020/12/11 01:44:29;;;;;;;43.92;21.52;;;;;;;-1.22;96.88;99939.72;4806569;29;20114;-87
2020/12/11 01:46:56;;;;;;;43.50;22.40;;;;;;;-1.22;97.07;99929.16;4805523;29;20055;-87
2020/12/11 01:49:24;;;;;;;43.88;22.38;;;;;;;-1.26;97.34;99917.88;4801215;29;20454;-87
2020/12/11 01:51:54;;;;;;;46.00;22.08;;;;;;;-1.27;97.36;99910.06;4806709;29;20058;-88
2020/12/11 01:54:22;;;;;;;47.00;21.50;;;;;;;-1.31;97.34;99913.78;4787746;29;20080;-88
2020/12/11 01:56:55;;;;;;;44.90;21.85;;;;;;;-1.29;97.07;99910.13;4800492;29;20512;-87
2020/12/11 01:59:39;;;;;;;42.92;21.60;;;;;;;-1.34;97.21;99904.28;4804680;29;20802;-88
2020/12/11 02:02:18;;;;;;;41.58;21.75;;;;;;;-1.33;97.13;99910.38;4809680;29;20053;-87
2020/12/11 02:04:43;;;;;;;42.65;22.58;;;;;;;-1.36;97.53;99907.91;4818108;29;20078;-87
2020/12/11 02:07:09;;;;;;;43.90;22.98;;;;;;;-1.35;97.42;99907.00;4800009;29;20070;-87
2020/12/11 02:09:35;;;;;;;45.95;21.67;;;;;;;-1.36;97.10;99900.00;4802811;29;20116;-88
2020/12/11 02:12:02;;;;;;;47.88;24.17;;;;;;;-1.37;97.54;99893.00;4803408;29;20584;-88
2020/12/11 02:14:28;;;;;;;47.50;23.05;;;;;;;-1.38;97.41;99891.28;4801264;29;20058;-88
2020/12/11 02:17:03;;;;;;;46.67;22.80;;;;;;;-1.39;97.05;99874.63;4805878;29;20059;-87
2020/12/11 02:19:35;;;;;;;45.60;21.95;;;;;;;-1.40;97.10;99872.91;4802570;29;20054;-88
2020/12/11 02:22:08;;;;;;;41.60;21.83;;;;;;;-1.42;97.09;99869.50;4810927;29;20134;-88
2020/12/11 02:24:33;;;;;;;44.85;22.33;;;;;;;-1.41;97.03;99865.94;4813186;29;20091;-87
2020/12/11 02:27:02;;;;;;;44.75;23.33;;;;;;;-1.43;97.06;99871.31;4800335;29;20046;-88
2020/12/11 02:29:28;;;;;;;40.70;22.47;;;;;;;-1.45;97.18;99862.59;4819114;29;20107;-87
2020/12/11 02:31:57;;;;;;;42.13;21.83;;;;;;;-1.48;97.66;99870.69;4804418;29;20074;-88
2020/12/11 02:34:22;;;;;;;42.27;20.83;;;;;;;-1.51;97.31;99875.31;4796425;29;20117;-88
2020/12/11 02:36:48;;;;;;;45.88;22.15;;;;;;;-1.49;97.28;99873.41;4798442;29;20815;-87
2020/12/11 02:39:16;;;;;;;41.28;20.80;;;;;;;-1.47;97.17;99863.66;4797377;29;20131;-88
2020/12/11 02:41:50;;;;;;;48.63;22.15;;;;;;;-1.44;96.94;99859.03;4802587;29;20593;-87
2020/12/11 02:44:18;;;;;;;44.70;22.58;;;;;;;-1.46;97.00;99854.78;4804289;29;20043;-88
2020/12/11 02:46:43;;;;;;;48.08;23.15;;;;;;;-1.50;97.21;99863.78;4818710;29;20050;-88
2020/12/11 02:49:09;;;;;;;47.28;22.35;;;;;;;-1.52;97.49;99869.16;4803913;29;20050;-85
2020/12/11 02:51:34;;;;;;;48.42;23.45;;;;;;;-1.52;97.32;99850.69;4804818;29;20043;-86
2020/12/11 02:54:11;;;;;;;52.95;23.25;;;;;;;-1.53;97.31;99856.03;4803535;29;20106;-85
2020/12/11 02:56:37;;;;;;;50.75;22.65;;;;;;;-1.53;97.53;99854.28;4796609;29;20038;-86
2020/12/11 02:59:02;;;;;;;46.50;23.50;;;;;;;-1.46;97.40;99853.00;4814475;29;20445;-86
2020/12/11 03:01:40;;;;;;;49.60;23.42;;;;;;;-1.50;96.94;99840.03;4814581;29;20125;-88
2020/12/11 03:04:14;;;;;;;47.15;22.92;;;;;;;-1.57;96.80;99839.53;4804415;29;20050;-87
2020/12/11 03:06:43;;;;;;;47.85;24.63;;;;;;;-1.59;97.30;99841.38;4802361;29;20071;-86
2020/12/11 03:09:11;;;;;;;48.30;23.23;;;;;;;-1.59;97.39;99851.94;4792562;29;20143;-86
2020/12/11 03:11:36;;;;;;;50.20;23.23;;;;;;;-1.55;97.50;99853.50;4808682;29;20047;-87
2020/12/11 03:14:02;;;;;;;46.55;23.25;;;;;;;-1.59;97.41;99851.94;4799598;29;20050;-87
2020/12/11 03:16:30;;;;;;;48.88;23.42;;;;;;;-1.65;97.63;99845.25;4805076;29;20052;-86
2020/12/11 03:18:55;;;;;;;54.50;25.00;;;;;;;-1.60;97.76;99845.00;4806788;29;20121;-85
2020/12/11 03:21:23;;;;;;;45.95;23.40;;;;;;;-1.60;97.22;99840.56;4792906;29;20129;-88
2020/12/11 03:23:49;;;;;;;48.92;23.65;;;;;;;-1.62;97.57;99831.88;4804328;29;20054;-87
2020/12/11 03:26:16;;;;;;;49.92;23.42;;;;;;;-1.64;97.69;99824.97;4798074;29;20854;-87
2020/12/11 03:28:41;;;;;;;53.75;23.95;;;;;;;-1.64;97.26;99828.47;4804499;29;20111;-86
2020/12/11 03:31:18;;;;;;;55.47;24.38;;;;;;;-1.58;97.55;99832.56;4802828;29;20046;-86
2020/12/11 03:33:43;;;;;;;53.42;25.17;;;;;;;-1.64;97.50;99822.34;4802707;29;20206;-86
2020/12/11 03:36:24;;;;;;;55.40;25.08;;;;;;;-1.66;97.52;99819.78;4803771;29;20125;-86
2020/12/11 03:38:52;;;;;;;51.30;24.55;;;;;;;-1.67;97.30;99811.97;4798602;29;20042;-86
2020/12/11 03:41:17;;;;;;;47.60;22.42;;;;;;;-1.69;97.74;99792.69;4816080;29;20054;-86
2020/12/11 03:43:47;;;;;;;53.05;25.45;;;;;;;-1.70;97.86;99796.28;4804013;29;20085;-86
2020/12/11 03:46:20;;;;;;;46.47;23.75;;;;;;;-1.69;97.67;99785.66;4814404;29;20081;-87
2020/12/11 03:48:50;;;;;;;51.08;24.38;;;;;;;-1.68;97.59;99778.59;4812748;29;20054;-86
2020/12/11 03:51:17;;;;;;;53.72;24.13;;;;;;;-1.72;97.35;99755.94;4799969;29;20042;-87
2020/12/11 03:53:46;;;;;;;52.03;24.08;;;;;;;-1.65;97.58;99741.47;4799826;29;20104;-86
2020/12/11 03:56:14;;;;;;;51.45;24.80;;;;;;;-1.69;97.45;99747.84;4814851;29;20039;-85
2020/12/11 03:58:41;;;;;;;50.75;24.15;;;;;;;-1.67;97.81;99743.38;4814803;29;20047;-86
2020/12/11 04:01:16;;;;;;;54.80;25.35;;;;;;;-1.62;97.67;99739.53;4808591;29;20480;-88
2020/12/11 04:03:49;;;;;;;53.30;26.50;;;;;;;-1.62;97.47;99741.31;4817489;29;20762;-87
2020/12/11 04:06:18;;;;;;;58.78;26.48;;;;;;;-1.59;97.49;99733.22;4802349;29;20057;-87
2020/12/11 04:08:46;;;;;;;52.97;25.05;;;;;;;-1.60;97.71;99731.53;4804797;29;20062;-87
2020/12/11 04:11:15;;;;;;;56.15;25.27;;;;;;;-1.58;97.83;99737.56;4805863;29;20592;-86
2020/12/11 04:13:43;;;;;;;57.40;26.70;;;;;;;-1.61;97.54;99717.47;4809093;29;20057;-86
2020/12/11 04:16:09;;;;;;;50.00;23.20;;;;;;;-1.61;97.55;99712.19;4797847;29;20103;-86
2020/12/11 04:18:38;;;;;;;53.97;25.05;;;;;;;-1.64;97.43;99711.53;4796964;29;20035;-86
2020/12/11 04:21:03;;;;;;;55.03;24.85;;;;;;;-1.65;97.29;99700.13;4815807;29;20057;-87
2020/12/11 04:23:28;;;;;;;57.65;26.95;;;;;;;-1.63;97.95;99703.53;4798639;29;20054;-86
2020/12/11 04:25:57;;;;;;;53.17;24.63;;;;;;;-1.57;97.69;99694.41;4798035;29;20050;-86
2020/12/11 04:28:28;;;;;;;56.90;26.33;;;;;;;-1.57;97.71;99694.41;4814850;29;20043;-87
2020/12/11 04:30:54;;;;;;;54.20;25.27;;;;;;;-1.59;97.17;99675.16;4812987;29;20576;-86
2020/12/11 04:33:19;;;;;;;54.50;25.30;;;;;;;-1.59;97.61;99678.66;4802155;29;20125;-86
2020/12/11 04:35:47;;;;;;;63.50;26.20;;;;;;;-1.59;97.85;99686.59;4796067;29;20492;-85
2020/12/11 04:38:13;;;;;;;61.88;27.05;;;;;;;-1.57;97.21;99688.31;4814363;29;20038;-85
2020/12/11 04:40:38;;;;;;;56.63;24.83;;;;;;;-1.51;97.40;99685.31;4802695;29;20054;-87
2020/12/11 04:43:13;;;;;;;54.33;24.80;;;;;;;-1.50;97.66;99666.75;4810885;29;20046;-87
2020/12/11 04:45:43;;;;;;;53.67;26.20;;;;;;;-1.49;97.50;99657.84;4805642;29;20054;-86
2020/12/11 04:48:09;;;;;;;;;;;;;;;-1.48;97.37;99651.66;4810092;29;20054;-86
2020/12/11 04:50:35;;;;;;;50.10;23.65;;;;;;;-1.42;97.48;99640.72;4803854;29;20286;-87
2020/12/11 04:53:00;;;;;;;52.05;24.92;;;;;;;-1.38;97.12;99643.19;4818595;29;20049;-87
2020/12/11 04:55:28;;;;;;;54.25;26.70;;;;;;;-1.36;97.02;99631.63;4803691;29;20046;-87
2020/12/11 04:57:56;;;;;;;53.47;25.27;;;;;;;-1.34;97.13;99629.75;4817812;29;20051;-88
2020/12/11 05:00:22;;;;;;;54.50;26.23;;;;;;;-1.34;97.21;99619.19;4800717;29;20398;-85
2020/12/11 05:02:49;;;;;;;50.30;25.50;;;;;;;-1.30;96.94;99619.84;4820858;29;20530;-87
2020/12/11 05:05:18;;;;;;;51.65;24.15;;;;;;;-1.26;96.95;99611.66;4812927;29;20493;-87
2020/12/11 05:07:44;;;;;;;51.40;24.35;;;;;;;-1.21;96.88;99605.25;4802235;29;20607;-86
2020/12/11 05:10:11;;;;;;;49.35;23.17;;;;;;;-1.21;96.82;99598.16;4790231;29;20046;-86
2020/12/11 05:12:40;;;;;;;48.08;22.48;;;;;;;-1.20;96.81;99604.31;4794719;29;20043;-88
2020/12/11 05:15:07;;;;;;;46.65;23.00;;;;;;;-1.16;96.67;99589.97;4802678;29;20073;-87
2020/12/11 05:17:40;;;;;;;47.45;22.30;;;;;;;-1.10;96.78;99601.03;4789657;29;20053;-87
2020/12/11 05:20:08;;;;;;;47.78;24.25;;;;;;;-1.13;96.69;99595.94;4793903;29;20489;-86
2020/12/11 05:22:38;;;;;;;48.50;22.90;;;;;;;-1.11;96.63;99586.09;4800557;29;20157;-86
2020/12/11 05:25:12;;;;;;;47.60;23.02;;;;;;;-1.08;96.45;99583.28;4789389;29;20042;-85
2020/12/11 05:27:41;;;;;;;48.20;23.92;;;;;;;-1.01;96.33;99577.66;4831698;29;20050;-86
2020/12/11 05:30:09;;;;;;;46.08;23.65;;;;;;;-1.00;96.30;99580.19;4816110;29;20065;-86
2020/12/11 05:33:02;;;;;;;45.15;22.27;;;;;;;-1.00;96.34;99569.63;4819091;29;20497;-88
2020/12/11 05:35:31;;;;;;;44.75;22.85;;;;;;;-1.00;96.20;99563.47;4801674;29;20043;-86
2020/12/11 05:38:04;;;;;;;50.47;26.65;;;;;;;-0.98;96.19;99553.69;4819748;29;20075;-86
2020/12/11 05:40:47;;;;;;;48.13;22.60;;;;;;;-0.95;96.14;99551.69;4775612;29;20550;-86
2020/12/11 05:43:22;;;;;;;48.70;24.45;;;;;;;-0.94;96.34;99552.56;4814129;29;20142;-87
2020/12/11 05:45:54;;;;;;;47.10;23.02;;;;;;;-0.91;95.92;99547.09;4787987;29;20076;-86
2020/12/11 05:48:22;;;;;;;45.83;23.17;;;;;;;-0.93;96.00;99539.25;4791720;29;20043;-84
2020/12/11 05:51:01;;;;;;;45.55;22.58;;;;;;;-0.91;95.79;99528.59;4818044;29;20055;-86
2020/12/11 05:53:34;;;;;;;44.55;23.08;;;;;;;-0.90;95.92;99523.22;4796908;29;20049;-88
2020/12/11 05:56:06;;;;;;;47.28;22.38;;;;;;;-0.91;95.95;99504.81;4795881;29;20065;-86
2020/12/11 05:58:37;;;;;;;42.40;21.40;;;;;;;-0.90;95.69;99512.66;4784835;29;20079;-85
2020/12/11 06:01:06;;;;;;;42.75;20.85;;;;;;;-0.82;95.76;99512.16;4811022;29;20078;-84
2020/12/11 06:03:36;;;;;;;41.33;20.67;;;;;;;-0.82;95.28;99506.88;4797939;29;20111;-86
2020/12/11 06:06:11;;;;;;;44.55;21.42;;;;;;;-0.81;95.30;99511.22;4794761;29;20077;-86
2020/12/11 06:08:44;;;;;;;43.08;21.20;;;;;;;-0.82;95.24;99503.41;4825657;29;20051;-85
2020/12/11 06:11:22;;;;;;;41.60;22.27;;;;;;;-0.84;95.42;99506.13;4802794;29;20578;-86
2020/12/11 06:13:50;;;;;;;42.72;22.83;;;;;;;-0.90;95.67;99486.25;4801096;29;20046;-85
2020/12/11 06:16:27;;;;;;;43.47;21.50;;;;;;;-0.90;95.78;99488.00;4796607;29;20142;-86
2020/12/11 06:18:59;;;;;;;46.17;22.10;;;;;;;-0.86;95.64;99492.16;4816669;29;20512;-85
2020/12/11 06:21:31;;;;;;;43.75;22.40;;;;;;;-0.80;95.78;99489.13;4807014;29;20521;-86
2020/12/11 06:23:59;;;;;;;41.50;22.02;;;;;;;-0.76;95.32;99487.16;4809544;29;20046;-84
2020/12/11 06:26:24;;;;;;;45.55;22.80;;;;;;;-0.72;95.72;99484.22;4806120;29;20050;-88
2020/12/11 06:28:56;;;;;;;45.72;22.98;;;;;;;-0.62;95.40;99483.63;4787598;29;20199;-85
2020/12/11 06:31:22;;;;;;;43.95;23.50;;;;;;;-0.64;95.31;99474.94;4808197;29;20997;-86
2020/12/11 06:33:50;;;;;;;44.13;22.20;;;;;;;-0.61;95.35;99482.66;4799850;29;20389;-85
2020/12/11 06:36:19;;;;;;;40.08;20.73;;;;;;;-0.60;95.46;99481.75;4804222;29;20039;-86
2020/12/11 06:38:58;;;;;;;37.72;20.58;;;;;;;-0.52;95.39;99471.50;4802931;29;20042;-85
2020/12/11 06:41:32;;;;;;;35.30;19.52;;;;;;;-0.51;95.17;99469.72;4796757;29;20144;-86
2020/12/11 06:44:09;;;;;;;44.88;21.60;;;;;;;-0.50;95.29;99466.13;4807815;29;20412;-86
2020/12/11 06:46:35;;;;;;;43.30;21.50;;;;;;;-0.51;95.43;99465.28;4805334;29;20042;-86
2020/12/11 06:49:18;;;;;;;38.42;20.10;;;;;;;-0.48;95.17;99458.94;4803149;29;20095;-86
2020/12/11 06:51:49;;;;;;;45.35;21.67;;;;;;;-0.45;95.21;99464.88;4799103;29;20045;-86
2020/12/11 06:54:26;;;;;;;42.88;20.63;;;;;;;-0.45;95.35;99456.94;4815721;29;20100;-87
2020/12/11 06:56:55;;;;;;;40.35;20.25;;;;;;;-0.43;95.25;99457.66;4812795;29;20082;-87
2020/12/11 06:59:33;;;;;;;39.38;19.38;;;;;;;-0.38;95.19;99466.16;4810089;29;21220;-88
2020/12/11 07:02:05;;;;;;;39.83;20.73;;;;;;;-0.37;94.98;99457.28;4816623;29;20042;-86
2020/12/11 07:04:51;;;;;;;41.58;19.83;;;;;;;-0.33;94.72;99452.63;4821584;29;20050;-87
2020/12/11 07:07:29;;;;;;;40.17;20.23;;;;;;;-0.28;95.01;99449.69;4790141;29;20038;-89
2020/12/11 07:09:56;;;;;;;40.47;21.25;;;;;;;-0.27;94.80;99446.09;4793192;29;20085;-87
2020/12/11 07:12:33;;;;;;;41.00;21.15;;;;;;;-0.29;95.03;99440.09;4805242;29;20054;-85
2020/12/11 07:14:58;;;;;;;37.88;20.42;;;;;;;-0.29;94.71;99442.72;4794808;29;20050;-86
2020/12/11 07:17:30;;;;;;;39.97;20.38;;;;;;;-0.30;94.96;99435.72;4805948;29;20046;-87
2020/12/11 07:20:08;;;;;;;38.97;19.92;;;;;;;-0.24;94.45;99420.28;4803296;29;20047;-86
2020/12/11 07:23:00;;;;;;;39.35;19.52;;;;;;;-0.24;94.68;99422.09;4791623;29;20064;-87
2020/12/11 07:25:29;;;;;;;41.97;21.35;;;;;;;-0.21;94.97;99420.13;4797885;29;20039;-87
2020/12/11 07:28:04;;;;;;;41.13;21.05;;;;;;;-0.20;94.47;99416.50;4801193;29;20046;-87
2020/12/11 07:30:32;;;;;;;38.20;20.20;;;;;;;-0.20;94.15;99410.38;4787767;29;20043;-86
2020/12/11 07:33:03;;;;;;;42.28;20.70;;;;;;;-0.17;94.06;99415.44;4789859;29;20049;-86
2020/12/11 07:35:33;;;;;;;38.20;19.75;;;;;;;-0.17;94.44;99410.16;4793471;29;20038;-87
2020/12/11 07:37:58;;;;;;;37.15;19.77;;;;;;;-0.16;94.55;99411.00;4793599;29;20042;-85
2020/12/11 07:40:30;;;;;;;37.45;19.20;;;;;;;-0.16;94.72;99411.88;4795360;29;20054;-86
2020/12/11 07:43:09;;;;;;;36.35;18.95;;;;;;;-0.11;94.46;99406.25;4798126;29;20039;-87
2020/12/11 07:45:41;;;;;;;38.53;19.27;;;;;;;-0.15;94.25;99395.03;4796014;29;20114;-86
2020/12/11 07:48:09;;;;;;;35.15;19.05;;;;;;;-0.11;94.28;99399.16;4791771;29;20042;-87
2020/12/11 07:50:45;;;;;;;38.30;19.02;;;;;;;-0.10;94.28;99392.94;4800488;29;20134;-85
2020/12/11 07:53:22;;;;;;;41.35;20.73;;;;;;;-0.06;94.28;99385.63;4806828;29;20039;-86
2020/12/11 07:55:59;;;;;;;35.38;19.13;;;;;;;-0.02;94.04;99385.31;4805064;29;20047;-89
2020/12/11 07:59:13;;;;;;;36.50;19.55;;;;;;;-0.02;94.32;99387.94;4799312;29;20389;-90
2020/12/11 08:02:08;;;;;;;34.80;19.92;;;;;;;0.03;94.00;99384.16;4791583;29;20049;-88
2020/12/11 08:04:56;;;;;;;36.85;18.73;;;;;;;0.05;93.60;99375.16;4790446;29;20079;-88
2020/12/11 08:07:38;;;;;;;34.75;18.90;;;;;;;0.09;93.05;99374.00;4783732;29;20059;-89
2020/12/11 08:10:18;;;;;;;33.55;17.50;;;;;;;0.14;93.21;99377.16;4809260;29;20469;-87
2020/12/11 08:12:47;;;;;;;38.70;19.33;;;;;;;0.15;93.25;99378.03;4790988;29;20046;-90
2020/12/11 08:15:59;;;;;;;36.78;19.27;;;;;;;0.15;93.46;99380.69;4794397;29;20048;-89
2020/12/11 08:18:50;;;;;;;34.53;18.27;;;;;;;0.18;93.87;99372.53;4749435;30;20130;-90
2020/12/11 08:21:36;;;;;;;33.42;17.15;;;;;;;0.23;93.52;99375.69;4777930;29;20039;-87
2020/12/11 08:24:04;;;;;;;34.08;17.58;;;;;;;0.26;93.40;99375.47;4804253;29;20046;-87
2020/12/11 08:26:37;;;;;;;35.83;18.02;;;;;;;0.29;92.96;99369.94;4796211;29;20042;-87
2020/12/11 08:29:07;;;;;;;36.65;17.38;;;;;;;0.29;93.37;99364.66;4799637;29;20409;-88
2020/12/11 08:31:51;;;;;;;31.85;17.55;;;;;;;0.34;93.06;99370.50;4809853;29;20528;-88
2020/12/11 08:34:22;;;;;;;33.03;18.25;;;;;;;0.39;92.82;99369.34;4781804;29;20050;-87
2020/12/11 08:37:24;;;;;;;32.83;17.42;;;;;;;0.40;93.18;99363.06;4814957;29;20042;-87
2020/12/11 08:40:46;;;;;;;27.52;16.27;;;;;;;0.44;92.44;99361.91;4802547;29;20528;-89
2020/12/11 08:43:39;;;;;;;31.70;16.88;;;;;;;0.46;92.46;99358.19;4790486;29;20054;-89
2020/12/11 08:47:08;;;;;;;32.53;17.58;;;;;;;0.45;92.98;99363.59;4793392;29;20046;-84
2020/12/11 08:52:51;;;;;;;29.48;17.45;;;;;;;0.58;92.20;99345.88;4760704;30;20050;-87
2020/12/11 08:55:21;;;;;;;30.70;16.40;;;;;;;0.57;92.23;99341.53;4775352;29;20049;-86
2020/12/11 09:21:45;;;;;;;32.22;17.30;;;;;;;0.76;92.57;99337.56;4751310;29;20046;-89
2020/12/11 09:24:13;;;;;;;31.20;17.35;;;;;;;0.74;93.74;99329.75;4787950;29;20084;-88
2020/12/11 09:26:47;;;;;;;32.13;17.30;;;;;;;0.68;94.02;99343.44;4795586;29;20212;-88
2020/12/11 09:29:40;;;;;;;35.95;18.65;;;;;;;0.68;94.46;99333.69;4803679;29;20054;-87
2020/12/11 09:32:15;;;;;;;34.05;17.10;;;;;;;0.76;94.76;99329.63;4783228;29;20050;-88
2020/12/11 09:34:45;;;;;;;35.70;20.55;;;;;;;0.67;94.94;99334.63;4811890;29;20058;-86
2020/12/11 09:37:15;;;;;;;34.05;18.52;;;;;;;0.67;94.81;99321.38;4824833;29;20493;-86
2020/12/11 09:39:51;;;;;;;41.60;22.27;;;;;;;0.66;95.28;99330.31;4805956;29;20050;-86
2020/12/11 09:43:01;;;;;;;39.15;20.08;;;;;;;0.66;95.92;99329.44;4792347;29;20046;-89
2020/12/11 09:54:22;;;;;;;42.67;23.70;;;;;;;0.68;96.66;99301.91;4810917;29;20112;-87
2020/12/11 09:56:50;;;;;;;43.07;21.17;;;;;;;0.76;97.10;99296.03;4812378;29;20132;-88
2020/12/11 09:59:23;;;;;;;42.75;21.00;;;;;;;0.76;96.83;99295.22;4804827;29;20501;-87
2020/12/11 10:02:12;;;;;;;40.33;19.30;;;;;;;0.73;97.63;99298.06;4807468;29;20062;-87
2020/12/11 10:04:37;;;;;;;46.70;22.38;;;;;;;0.75;97.30;99296.16;4805005;29;20077;-86
2020/12/11 10:07:06;;;;;;;44.90;22.85;;;;;;;0.80;97.68;99294.03;4795658;29;20078;-87
2020/12/11 10:09:34;;;;;;;44.63;23.25;;;;;;;0.77;97.53;99286.31;4786202;29;20055;-85
2020/12/11 10:12:04;;;;;;;39.25;20.23;;;;;;;0.80;97.17;99288.72;4783376;29;20401;-86
2020/12/11 10:14:36;;;;;;;46.10;21.75;;;;;;;0.81;97.63;99285.97;4801643;29;20092;-87
2020/12/11 10:17:02;;;;;;;43.72;21.90;;;;;;;0.82;97.31;99285.00;4788549;29;20543;-86
2020/12/11 10:19:27;;;;;;;49.30;25.77;;;;;;;0.73;97.50;99285.69;4786323;29;20118;-86
2020/12/11 10:21:55;;;;;;;42.05;21.50;;;;;;;0.80;97.32;99284.28;4776618;29;20047;-87
2020/12/11 10:24:22;;;;;;;44.45;22.17;;;;;;;0.85;97.17;99279.50;4796471;29;20061;-86
2020/12/11 10:26:48;;;;;;;41.60;21.73;;;;;;;0.88;97.22;99283.69;4793839;29;20108;-86
2020/12/11 10:29:16;;;;;;;45.80;21.15;;;;;;;0.93;97.12;99283.34;4778084;29;20424;-85
2020/12/11 10:32:21;;;;;;;37.38;20.58;;;;;;;0.91;96.83;99274.69;4793059;29;20042;-86
2020/12/11 10:42:20;;;;;;;38.10;20.08;;;;;;;1.04;96.44;99262.22;4712929;30;20102;-85
2020/12/11 10:45:01;;;;;;;37.00;20.15;;;;;;;1.09;95.92;99264.50;4711363;30;20049;-86
2020/12/11 10:50:25;;;;;;;40.90;20.23;;;;;;;1.05;96.01;99261.28;4772253;29;20524;-88
2020/12/11 10:56:26;;;;;;;41.95;20.08;;;;;;;1.13;95.73;99253.56;4725085;30;20131;-87
2020/12/11 10:59:14;;;;;;;36.45;18.25;;;;;;;1.14;95.45;99243.84;4735300;30;20071;-86
2020/12/11 11:02:06;;;;;;;33.53;19.15;;;;;;;1.20;95.38;99241.56;4779492;29;20046;-85
2020/12/11 11:04:38;;;;;;;34.25;18.58;;;;;;;1.27;95.59;99234.00;4773532;29;20122;-86
2020/12/11 11:07:35;;;;;;;36.42;21.25;;;;;;;1.30;95.14;99227.63;4781264;29;20550;-85
2020/12/11 11:10:16;;;;;;;36.78;19.50;;;;;;;1.35;95.47;99226.28;4804036;29;20047;-85
2020/12/11 11:15:44;;;;;;;35.53;19.00;;;;;;;1.44;95.29;99210.63;4766077;29;20034;-85
2020/12/11 11:19:13;;;;;;;;;;;;;;;;;;;;;
2020/12/11 11:31:18;;;;;;;35.53;17.63;;;;;;;1.77;94.05;99187.75;4640961;30;20051;-84
2020/12/11 11:34:19;;;;;;;;;;;;;;;;;;;;;
2020/12/11 11:37:30;;;;;;;34.75;17.92;;;;;;;1.83;93.72;99185.47;4647164;30;20787;-85
2020/12/11 11:40:55;;;;;;;;;;;;;;;;;;;;;
2020/12/11 11:46:54;;;;;;;31.80;17.83;;;;;;;1.83;94.25;99182.81;4711973;30;22760;-84
2020/12/11 11:49:32;;;;;;;29.20;16.58;;;;;;;1.85;94.87;99174.72;4764914;29;20054;-85
2020/12/11 11:52:11;;;;;;;36.20;17.80;;;;;;;1.90;94.97;99173.41;4779254;29;20063;-85
2020/12/11 11:54:40;;;;;;;;;;;;;;;1.94;95.51;99171.34;4767581;29;20076;-85
2020/12/11 11:57:05;;;;;;;34.35;18.50;;;;;;;1.93;95.01;99164.38;4770091;29;19921;-84
2020/12/11 11:59:33;;;;;;;36.70;18.75;;;;;;;1.92;95.35;99166.16;4766754;29;20040;-86
2020/12/11 12:02:09;;;;;;;35.13;18.75;;;;;;;1.97;95.71;99157.00;4781610;29;20077;-86
2020/12/11 12:04:47;;;;;;;35.75;17.92;;;;;;;1.93;95.59;99151.94;4793716;29;20051;-85
2020/12/11 12:07:12;;;;;;;38.45;20.23;;;;;;;1.96;95.08;99144.69;4797718;29;20121;-85
2020/12/11 12:09:41;;;;;;;37.00;20.88;;;;;;;1.91;95.89;99147.69;4800174;29;20141;-87
2020/12/11 12:12:06;;;;;;;38.33;20.08;;;;;;;1.94;95.55;99142.16;4784370;29;20054;-87
2020/12/11 12:15:00;;;;;;;36.75;19.20;;;;;;;2.01;95.65;99146.00;4793849;29;20051;-86
2020/12/11 12:17:34;;;;;;;31.95;17.50;;;;;;;2.05;95.24;99139.47;4773371;29;20211;-87
2020/12/11 12:20:07;;;;;;;32.05;18.45;;;;;;;2.10;95.88;99131.97;4794155;29;20051;-84
2020/12/11 12:29:01;;;;;;;32.30;18.58;;;;;;;2.22;95.13;99118.69;4792435;29;20191;-86
2020/12/11 12:31:16;;;;;;;32.25;19.27;;;;;;;2.25;94.86;99119.28;4779781;29;20046;-84
2020/12/11 12:44:56;;;;;;;34.08;19.48;;;;;;;2.28;95.14;99102.25;4793081;29;20106;-84
2020/12/11 12:47:24;;;;;;;34.22;19.08;;;;;;;2.28;95.64;99102.25;4784410;29;20050;-85
2020/12/11 12:49:50;;;;;;;32.00;19.58;;;;;;;2.33;96.09;99100.06;4777381;29;20047;-85
2020/12/11 12:52:20;;;;;;;32.53;18.73;;;;;;;2.31;95.98;99096.69;4774157;29;20405;-85
2020/12/11 12:54:49;;;;;;;36.17;20.25;;;;;;;2.30;95.80;99095.00;4786080;29;20043;-86
2020/12/11 12:59:53;;;;;;;37.70;21.17;;;;;;;2.26;97.06;99085.63;4798762;29;20050;-83
2020/12/11 13:05:10;;;;;;;44.55;21.75;;;;;;;2.30;96.97;99089.72;4794890;29;20084;-85
2020/12/11 13:07:57;;;;;;;41.22;22.58;;;;;;;2.27;97.17;99079.34;4811103;29;20050;-85
2020/12/11 13:10:27;;;;;;;44.83;22.60;;;;;;;2.33;97.59;99085.97;4784629;29;20112;-85
2020/12/11 13:13:15;;;;;;;45.75;24.15;;;;;;;2.27;97.77;99077.53;4805433;29;20046;-83
2020/12/11 13:15:40;;;;;;;55.53;23.15;;;;;;;2.32;97.53;99079.78;4806550;29;20078;-86
2020/12/11 13:18:06;;;;;;;46.50;23.27;;;;;;;2.29;97.31;99074.75;4777821;29;20046;-84